sensor_id;sensor_type;location;lat;lon;timestamp;pressure;altitude;pressure_sealevel;temperature;humidity
16120;BME280;12670;53.502;10.252;2023-06-19T00:01:30;100886.06;;;21.68;70.95
16120;BME280;12670;53.502;10.252;2023-06-19T00:04:33;100883.25;;;21.70;70.95
16120;BME280;12670;53.502;10.252;2023-06-19T00:07:36;100881.28;;;21.72;71.63
16120;BME280;12670;53.502;10.252;2023-06-19T00:10:39;100876.66;;;21.63;70.74
16120;BME280;12670;53.502;10.252;2023-06-19T00:13:43;100873.69;;;21.66;70.90
16120;BME280;12670;53.502;10.252;2023-06-19T00:16:46;100865.75;;;21.64;70.79
16120;BME280;12670;53.502;10.252;2023-06-19T00:19:48;100870.19;;;21.75;69.93
16120;BME280;12670;53.502;10.252;2023-06-19T00:22:51;100867.91;;;21.70;70.38
16120;BME280;12670;53.502;10.252;2023-06-19T00:25:54;100864.34;;;21.70;70.83
16120;BME280;12670;53.502;10.252;2023-06-19T00:28:58;100868.75;;;21.71;70.16
16120;BME280;12670;53.502;10.252;2023-06-19T00:32:00;100871.31;;;21.72;70.31
16120;BME280;12670;53.502;10.252;2023-06-19T00:35:04;100863.38;;;21.71;70.42
16120;BME280;12670;53.502;10.252;2023-06-19T00:38:07;100863.06;;;21.74;69.79
16120;BME280;12670;53.502;10.252;2023-06-19T00:41:10;100861.91;;;21.67;70.35
16120;BME280;12670;53.502;10.252;2023-06-19T00:44:14;100866.06;;;21.71;69.81
16120;BME280;12670;53.502;10.252;2023-06-19T00:47:17;100871.06;;;21.75;69.80
16120;BME280;12670;53.502;10.252;2023-06-19T00:50:20;100864.16;;;21.62;71.34
16120;BME280;12670;53.502;10.252;2023-06-19T00:53:24;100863.38;;;21.71;70.22
16120;BME280;12670;53.502;10.252;2023-06-19T00:59:31;100855.06;;;21.63;71.57
16120;BME280;12670;53.502;10.252;2023-06-19T01:02:34;100842.28;;;21.65;71.61
16120;BME280;12670;53.502;10.252;2023-06-19T01:05:37;100838.06;;;21.72;70.83
16120;BME280;12670;53.502;10.252;2023-06-19T01:08:43;100840.63;;;21.73;70.90
16120;BME280;12670;53.502;10.252;2023-06-19T01:11:55;100829.78;;;21.64;69.14
16120;BME280;12670;53.502;10.252;2023-06-19T01:15:03;100825.50;;;21.61;69.35
16120;BME280;12670;53.502;10.252;2023-06-19T01:18:07;100819.56;;;21.67;69.58
16120;BME280;12670;53.502;10.252;2023-06-19T01:21:11;100819.00;;;21.64;69.50
16120;BME280;12670;53.502;10.252;2023-06-19T01:24:15;100808.22;;;21.73;69.75
16120;BME280;12670;53.502;10.252;2023-06-19T01:27:18;100797.81;;;21.69;70.13
16120;BME280;12670;53.502;10.252;2023-06-19T01:30:21;100790.53;;;21.60;69.43
16120;BME280;12670;53.502;10.252;2023-06-19T01:33:27;100793.50;;;21.56;70.33
16120;BME280;12670;53.502;10.252;2023-06-19T01:36:31;100793.94;;;21.62;70.33
16120;BME280;12670;53.502;10.252;2023-06-19T01:39:36;100793.41;;;21.68;70.73
16120;BME280;12670;53.502;10.252;2023-06-19T01:42:40;100794.84;;;21.72;71.57
16120;BME280;12670;53.502;10.252;2023-06-19T01:45:43;100790.72;;;21.68;70.95
16120;BME280;12670;53.502;10.252;2023-06-19T01:48:46;100789.59;;;21.70;71.34
16120;BME280;12670;53.502;10.252;2023-06-19T01:51:49;100787.31;;;21.66;72.01
16120;BME280;12670;53.502;10.252;2023-06-19T01:54:53;100791.69;;;21.67;71.20
16120;BME280;12670;53.502;10.252;2023-06-19T01:57:55;100797.84;;;21.48;71.46
16120;BME280;12670;53.502;10.252;2023-06-19T02:00:58;100794.22;;;21.59;72.65
16120;BME280;12670;53.502;10.252;2023-06-19T02:04:01;100793.50;;;21.56;72.48
16120;BME280;12670;53.502;10.252;2023-06-19T02:07:04;100798.44;;;21.51;71.38
16120;BME280;12670;53.502;10.252;2023-06-19T02:10:09;100789.38;;;21.52;72.46
16120;BME280;12670;53.502;10.252;2023-06-19T02:13:12;100788.16;;;21.45;73.01
16120;BME280;12670;53.502;10.252;2023-06-19T02:16:15;100781.66;;;21.48;72.55
16120;BME280;12670;53.502;10.252;2023-06-19T02:19:18;100784.22;;;21.49;72.81
16120;BME280;12670;53.502;10.252;2023-06-19T02:22:20;100779.19;;;21.35;72.82
16120;BME280;12670;53.502;10.252;2023-06-19T02:25:24;100779.09;;;21.46;73.02
16120;BME280;12670;53.502;10.252;2023-06-19T02:28:27;100773.09;;;21.43;73.12
16120;BME280;12670;53.502;10.252;2023-06-19T02:31:30;100763.31;;;21.42;73.87
16120;BME280;12670;53.502;10.252;2023-06-19T02:34:32;100766.25;;;21.39;73.39
16120;BME280;12670;53.502;10.252;2023-06-19T02:37:35;100762.38;;;21.32;73.57
16120;BME280;12670;53.502;10.252;2023-06-19T02:40:40;100773.31;;;21.30;73.65
16120;BME280;12670;53.502;10.252;2023-06-19T02:43:42;100770.81;;;21.38;73.38
16120;BME280;12670;53.502;10.252;2023-06-19T02:46:45;100776.06;;;21.40;74.16
16120;BME280;12670;53.502;10.252;2023-06-19T02:49:48;100771.78;;;21.37;73.46
16120;BME280;12670;53.502;10.252;2023-06-19T02:52:50;100771.34;;;21.32;73.60
16120;BME280;12670;53.502;10.252;2023-06-19T02:55:54;100775.25;;;21.28;74.28
16120;BME280;12670;53.502;10.252;2023-06-19T02:58:57;100773.03;;;21.33;74.19
16120;BME280;12670;53.502;10.252;2023-06-19T03:02:00;100767.44;;;21.25;74.84
16120;BME280;12670;53.502;10.252;2023-06-19T03:05:03;100764.22;;;21.31;74.34
16120;BME280;12670;53.502;10.252;2023-06-19T03:08:05;100760.28;;;21.35;72.73
16120;BME280;12670;53.502;10.252;2023-06-19T03:11:09;100757.59;;;21.35;73.43
16120;BME280;12670;53.502;10.252;2023-06-19T03:14:12;100755.00;;;21.34;73.98
16120;BME280;12670;53.502;10.252;2023-06-19T03:17:15;100759.94;;;21.28;73.53
16120;BME280;12670;53.502;10.252;2023-06-19T03:20:18;100757.59;;;21.35;74.33
16120;BME280;12670;53.502;10.252;2023-06-19T03:23:20;100755.59;;;21.37;74.55
16120;BME280;12670;53.502;10.252;2023-06-19T03:26:24;100754.16;;;21.33;74.09
16120;BME280;12670;53.502;10.252;2023-06-19T03:29:27;100744.84;;;21.26;74.93
16120;BME280;12670;53.502;10.252;2023-06-19T03:32:30;100748.03;;;21.31;74.82
16120;BME280;12670;53.502;10.252;2023-06-19T03:35:33;100753.09;;;21.24;75.70
16120;BME280;12670;53.502;10.252;2023-06-19T03:38:35;100745.97;;;21.23;75.64
16120;BME280;12670;53.502;10.252;2023-06-19T03:41:39;100753.66;;;21.28;74.39
16120;BME280;12670;53.502;10.252;2023-06-19T03:44:42;100747.75;;;21.34;71.98
16120;BME280;12670;53.502;10.252;2023-06-19T03:47:45;100746.94;;;21.22;75.08
16120;BME280;12670;53.502;10.252;2023-06-19T03:50:47;100735.25;;;21.33;75.36
16120;BME280;12670;53.502;10.252;2023-06-19T03:53:50;100739.81;;;21.33;75.73
16120;BME280;12670;53.502;10.252;2023-06-19T03:56:54;100732.59;;;21.22;75.03
16120;BME280;12670;53.502;10.252;2023-06-19T03:59:57;100728.44;;;21.29;74.46
16120;BME280;12670;53.502;10.252;2023-06-19T04:02:59;100729.78;;;21.23;75.41
16120;BME280;12670;53.502;10.252;2023-06-19T04:06:02;100723.91;;;21.29;76.23
16120;BME280;12670;53.502;10.252;2023-06-19T04:09:05;100717.34;;;21.32;76.19
16120;BME280;12670;53.502;10.252;2023-06-19T04:12:10;100721.28;;;21.28;77.27
16120;BME280;12670;53.502;10.252;2023-06-19T04:15:12;100719.34;;;21.30;75.86
16120;BME280;12670;53.502;10.252;2023-06-19T04:18:15;100714.53;;;21.34;76.68
16120;BME280;12670;53.502;10.252;2023-06-19T04:21:18;100721.06;;;21.31;75.27
16120;BME280;12670;53.502;10.252;2023-06-19T04:24:21;100723.25;;;21.26;75.62
16120;BME280;12670;53.502;10.252;2023-06-19T04:27:25;100731.56;;;21.34;76.15
16120;BME280;12670;53.502;10.252;2023-06-19T04:30:27;100725.91;;;21.37;75.40
16120;BME280;12670;53.502;10.252;2023-06-19T04:33:30;100737.84;;;21.35;75.66
16120;BME280;12670;53.502;10.252;2023-06-19T04:36:33;100734.53;;;21.31;76.73
16120;BME280;12670;53.502;10.252;2023-06-19T04:39:36;100739.09;;;21.31;74.79
16120;BME280;12670;53.502;10.252;2023-06-19T04:42:40;100735.44;;;21.20;74.57
16120;BME280;12670;53.502;10.252;2023-06-19T04:45:43;100736.53;;;21.29;73.46
16120;BME280;12670;53.502;10.252;2023-06-19T04:48:46;100742.63;;;21.31;74.72
16120;BME280;12670;53.502;10.252;2023-06-19T04:51:52;100745.94;;;21.35;75.56
16120;BME280;12670;53.502;10.252;2023-06-19T04:54:54;100738.09;;;21.32;75.19
16120;BME280;12670;53.502;10.252;2023-06-19T04:57:58;100738.69;;;21.35;76.01
16120;BME280;12670;53.502;10.252;2023-06-19T05:01:01;100736.75;;;21.26;77.35
16120;BME280;12670;53.502;10.252;2023-06-19T05:04:04;100730.47;;;21.37;77.38
16120;BME280;12670;53.502;10.252;2023-06-19T05:07:07;100723.03;;;21.29;76.56
16120;BME280;12670;53.502;10.252;2023-06-19T05:10:09;100726.06;;;21.36;76.36
16120;BME280;12670;53.502;10.252;2023-06-19T05:13:14;100722.50;;;21.35;78.27
16120;BME280;12670;53.502;10.252;2023-06-19T05:16:16;100730.47;;;21.37;77.06
16120;BME280;12670;53.502;10.252;2023-06-19T05:19:21;100722.25;;;21.27;77.51
16120;BME280;12670;53.502;10.252;2023-06-19T05:22:24;100728.28;;;21.31;76.45
16120;BME280;12670;53.502;10.252;2023-06-19T05:25:28;100726.44;;;21.31;77.46
16120;BME280;12670;53.502;10.252;2023-06-19T05:28:32;100718.84;;;21.25;76.95
16120;BME280;12670;53.502;10.252;2023-06-19T05:31:35;100716.81;;;21.38;77.50
16120;BME280;12670;53.502;10.252;2023-06-19T05:34:37;100715.38;;;21.34;75.95
16120;BME280;12670;53.502;10.252;2023-06-19T05:37:40;100723.47;;;21.34;76.14
16120;BME280;12670;53.502;10.252;2023-06-19T05:40:45;100714.66;;;21.32;76.48
16120;BME280;12670;53.502;10.252;2023-06-19T05:43:49;100730.84;;;21.32;76.48
16120;BME280;12670;53.502;10.252;2023-06-19T05:46:51;100727.31;;;21.32;75.28
16120;BME280;12670;53.502;10.252;2023-06-19T05:49:54;100734.72;;;21.39;75.80
16120;BME280;12670;53.502;10.252;2023-06-19T05:52:57;100734.16;;;21.36;77.71
16120;BME280;12670;53.502;10.252;2023-06-19T05:55:59;100739.22;;;21.29;75.99
16120;BME280;12670;53.502;10.252;2023-06-19T05:59:03;100751.06;;;21.38;75.69
16120;BME280;12670;53.502;10.252;2023-06-19T06:02:06;100749.75;;;21.32;75.17
16120;BME280;12670;53.502;10.252;2023-06-19T06:05:09;100757.22;;;21.49;75.27
16120;BME280;12670;53.502;10.252;2023-06-19T06:08:12;100770.25;;;21.44;77.93
16120;BME280;12670;53.502;10.252;2023-06-19T06:11:14;100765.41;;;21.38;76.57
16120;BME280;12670;53.502;10.252;2023-06-19T06:14:18;100776.72;;;21.32;74.94
16120;BME280;12670;53.502;10.252;2023-06-19T06:17:21;100777.06;;;21.39;76.81
16120;BME280;12670;53.502;10.252;2023-06-19T06:20:24;100772.72;;;21.47;75.47
16120;BME280;12670;53.502;10.252;2023-06-19T06:23:27;100775.34;;;21.38;76.53
16120;BME280;12670;53.502;10.252;2023-06-19T06:26:30;100780.72;;;21.59;77.68
16120;BME280;12670;53.502;10.252;2023-06-19T06:29:34;100774.88;;;21.53;77.99
16120;BME280;12670;53.502;10.252;2023-06-19T06:32:38;100773.88;;;21.54;75.84
16120;BME280;12670;53.502;10.252;2023-06-19T06:35:41;100780.38;;;21.73;76.71
16120;BME280;12670;53.502;10.252;2023-06-19T06:38:43;100774.97;;;21.73;75.68
16120;BME280;12670;53.502;10.252;2023-06-19T06:41:46;100777.44;;;21.55;75.51
16120;BME280;12670;53.502;10.252;2023-06-19T06:44:50;100764.88;;;21.75;76.90
16120;BME280;12670;53.502;10.252;2023-06-19T06:47:53;100777.19;;;21.89;78.45
16120;BME280;12670;53.502;10.252;2023-06-19T06:50:56;100772.72;;;21.78;76.33
16120;BME280;12670;53.502;10.252;2023-06-19T06:54:02;100770.19;;;21.86;77.04
16120;BME280;12670;53.502;10.252;2023-06-19T06:57:05;100763.97;;;21.95;77.03
16120;BME280;12670;53.502;10.252;2023-06-19T07:00:11;100761.97;;;21.88;77.92
16120;BME280;12670;53.502;10.252;2023-06-19T07:03:14;100757.69;;;21.85;77.69
16120;BME280;12670;53.502;10.252;2023-06-19T07:06:16;100767.13;;;22.00;76.72
16120;BME280;12670;53.502;10.252;2023-06-19T07:09:19;100767.38;;;21.97;77.25
16120;BME280;12670;53.502;10.252;2023-06-19T07:12:23;100775.78;;;21.94;74.99
16120;BME280;12670;53.502;10.252;2023-06-19T07:15:27;100769.38;;;21.95;77.92
16120;BME280;12670;53.502;10.252;2023-06-19T07:18:30;100740.34;;;21.88;81.03
16120;BME280;12670;53.502;10.252;2023-06-19T07:21:32;100728.97;;;21.84;79.58
16120;BME280;12670;53.502;10.252;2023-06-19T07:24:35;100713.34;;;21.88;80.14
16120;BME280;12670;53.502;10.252;2023-06-19T07:27:39;100723.13;;;21.79;78.31
16120;BME280;12670;53.502;10.252;2023-06-19T07:30:44;100734.38;;;21.84;78.56
16120;BME280;12670;53.502;10.252;2023-06-19T07:33:49;100741.91;;;21.90;78.85
16120;BME280;12670;53.502;10.252;2023-06-19T07:36:52;100753.31;;;21.94;77.71
16120;BME280;12670;53.502;10.252;2023-06-19T07:39:54;100766.97;;;22.02;78.91
16120;BME280;12670;53.502;10.252;2023-06-19T07:42:57;100757.44;;;21.98;77.91
16120;BME280;12670;53.502;10.252;2023-06-19T07:46:01;100756.03;;;22.03;79.14
16120;BME280;12670;53.502;10.252;2023-06-19T07:49:04;100763.69;;;21.98;81.95
16120;BME280;12670;53.502;10.252;2023-06-19T07:52:07;100769.38;;;21.95;79.11
16120;BME280;12670;53.502;10.252;2023-06-19T07:55:11;100769.97;;;21.99;80.00
16120;BME280;12670;53.502;10.252;2023-06-19T07:58:14;100771.31;;;22.14;79.74
16120;BME280;12670;53.502;10.252;2023-06-19T08:01:18;100782.88;;;22.26;79.31
16120;BME280;12670;53.502;10.252;2023-06-19T08:04:21;100778.31;;;22.17;79.20
16120;BME280;12670;53.502;10.252;2023-06-19T08:07:23;100775.91;;;22.33;77.62
16120;BME280;12670;53.502;10.252;2023-06-19T08:10:26;100776.78;;;22.43;76.39
16120;BME280;12670;53.502;10.252;2023-06-19T08:13:29;100778.38;;;22.55;75.44
16120;BME280;12670;53.502;10.252;2023-06-19T08:16:33;100773.41;;;22.80;77.28
16120;BME280;12670;53.502;10.252;2023-06-19T08:19:36;100776.28;;;23.07;75.20
16120;BME280;12670;53.502;10.252;2023-06-19T08:22:40;100773.78;;;23.33;76.59
16120;BME280;12670;53.502;10.252;2023-06-19T08:25:43;100767.50;;;23.52;76.31
16120;BME280;12670;53.502;10.252;2023-06-19T08:28:45;100771.47;;;23.58;71.80
16120;BME280;12670;53.502;10.252;2023-06-19T08:31:50;100775.22;;;23.47;70.56
16120;BME280;12670;53.502;10.252;2023-06-19T08:34:53;100770.75;;;23.75;71.99
16120;BME280;12670;53.502;10.252;2023-06-19T08:37:56;100766.28;;;23.74;75.23
16120;BME280;12670;53.502;10.252;2023-06-19T08:40:58;100766.28;;;23.84;72.23
16120;BME280;12670;53.502;10.252;2023-06-19T08:44:01;100760.75;;;24.03;70.62
16120;BME280;12670;53.502;10.252;2023-06-19T08:47:06;100770.00;;;24.38;68.47
16120;BME280;12670;53.502;10.252;2023-06-19T08:50:09;100759.72;;;24.59;69.57
16120;BME280;12670;53.502;10.252;2023-06-19T08:53:12;100762.25;;;24.43;64.68
16120;BME280;12670;53.502;10.252;2023-06-19T08:56:15;100752.03;;;24.72;64.83
16120;BME280;12670;53.502;10.252;2023-06-19T08:59:18;100763.34;;;24.86;70.00
16120;BME280;12670;53.502;10.252;2023-06-19T09:02:23;100761.16;;;25.25;68.82
16120;BME280;12670;53.502;10.252;2023-06-19T09:05:25;100763.72;;;25.52;64.81
16120;BME280;12670;53.502;10.252;2023-06-19T09:08:28;100755.13;;;25.65;66.71
16120;BME280;12670;53.502;10.252;2023-06-19T09:11:31;100761.22;;;25.59;61.38
16120;BME280;12670;53.502;10.252;2023-06-19T09:14:34;100763.56;;;25.54;60.49
16120;BME280;12670;53.502;10.252;2023-06-19T09:17:38;100762.50;;;25.47;62.36
16120;BME280;12670;53.502;10.252;2023-06-19T09:20:42;100761.44;;;25.40;63.22
16120;BME280;12670;53.502;10.252;2023-06-19T09:23:46;100758.53;;;25.67;63.73
16120;BME280;12670;53.502;10.252;2023-06-19T09:26:50;100766.56;;;25.69;61.58
16120;BME280;12670;53.502;10.252;2023-06-19T09:29:53;100752.78;;;25.70;63.65
16120;BME280;12670;53.502;10.252;2023-06-19T09:33:06;100752.91;;;25.87;62.86
16120;BME280;12670;53.502;10.252;2023-06-19T09:36:09;100752.09;;;26.02;64.34
16120;BME280;12670;53.502;10.252;2023-06-19T09:39:13;100754.34;;;26.66;64.81
16120;BME280;12670;53.502;10.252;2023-06-19T09:42:17;100758.25;;;26.79;61.69
16120;BME280;12670;53.502;10.252;2023-06-19T09:45:23;100754.69;;;26.79;60.15
16120;BME280;12670;53.502;10.252;2023-06-19T09:48:32;100754.22;;;26.92;58.93
16120;BME280;12670;53.502;10.252;2023-06-19T09:51:37;100752.13;;;26.53;57.53
16120;BME280;12670;53.502;10.252;2023-06-19T09:54:41;100753.50;;;26.65;58.77
16120;BME280;12670;53.502;10.252;2023-06-19T09:57:45;100756.56;;;26.70;57.59
16120;BME280;12670;53.502;10.252;2023-06-19T10:00:50;100750.63;;;26.83;62.62
16120;BME280;12670;53.502;10.252;2023-06-19T10:04:03;100747.41;;;26.88;58.78
16120;BME280;12670;53.502;10.252;2023-06-19T10:07:15;100746.56;;;27.03;55.09
16120;BME280;12670;53.502;10.252;2023-06-19T10:10:23;100747.41;;;27.04;54.83
16120;BME280;12670;53.502;10.252;2023-06-19T10:13:33;100746.75;;;27.10;55.27
16120;BME280;12670;53.502;10.252;2023-06-19T10:16:36;100754.19;;;26.75;55.75
16120;BME280;12670;53.502;10.252;2023-06-19T10:19:49;100750.81;;;27.14;60.53
16120;BME280;12670;53.502;10.252;2023-06-19T10:22:57;100744.66;;;27.36;53.51
16120;BME280;12670;53.502;10.252;2023-06-19T10:26:00;100748.00;;;27.63;56.63
16120;BME280;12670;53.502;10.252;2023-06-19T10:29:14;100744.53;;;27.94;58.15
16120;BME280;12670;53.502;10.252;2023-06-19T10:32:17;100744.25;;;27.80;54.33
16120;BME280;12670;53.502;10.252;2023-06-19T10:35:21;100741.16;;;27.83;55.39
16120;BME280;12670;53.502;10.252;2023-06-19T10:38:25;100732.56;;;27.31;52.62
16120;BME280;12670;53.502;10.252;2023-06-19T10:41:28;100732.28;;;27.09;53.76
16120;BME280;12670;53.502;10.252;2023-06-19T10:44:31;100740.88;;;27.62;57.27
16120;BME280;12670;53.502;10.252;2023-06-19T10:47:35;100733.94;;;27.90;54.11
16120;BME280;12670;53.502;10.252;2023-06-19T10:50:42;100738.88;;;28.34;52.79
16120;BME280;12670;53.502;10.252;2023-06-19T10:53:44;100737.88;;;28.81;51.81
16120;BME280;12670;53.502;10.252;2023-06-19T10:56:47;100731.84;;;29.76;49.88
16120;BME280;12670;53.502;10.252;2023-06-19T10:59:52;100743.41;;;30.59;48.31
16120;BME280;12670;53.502;10.252;2023-06-19T11:02:55;100745.72;;;30.76;45.38
16120;BME280;12670;53.502;10.252;2023-06-19T11:05:59;100742.69;;;31.14;46.54
16120;BME280;12670;53.502;10.252;2023-06-19T11:09:02;100747.06;;;30.66;44.55
16120;BME280;12670;53.502;10.252;2023-06-19T11:12:07;100756.66;;;30.55;44.97
16120;BME280;12670;53.502;10.252;2023-06-19T11:15:11;100742.13;;;29.59;47.14
16120;BME280;12670;53.502;10.252;2023-06-19T11:18:15;100740.66;;;30.37;45.43
16120;BME280;12670;53.502;10.252;2023-06-19T11:21:20;100732.41;;;31.44;44.99
16120;BME280;12670;53.502;10.252;2023-06-19T11:24:23;100738.03;;;31.71;42.39
16120;BME280;12670;53.502;10.252;2023-06-19T11:27:26;100720.03;;;32.44;41.22
16120;BME280;12670;53.502;10.252;2023-06-19T11:30:30;100720.31;;;32.08;39.97
16120;BME280;12670;53.502;10.252;2023-06-19T11:33:34;100727.47;;;31.33;40.38
16120;BME280;12670;53.502;10.252;2023-06-19T11:36:38;100735.72;;;32.02;41.88
16120;BME280;12670;53.502;10.252;2023-06-19T11:39:43;100736.56;;;31.68;39.74
16120;BME280;12670;53.502;10.252;2023-06-19T11:42:47;100740.09;;;31.06;39.80
16120;BME280;12670;53.502;10.252;2023-06-19T11:45:50;100738.16;;;30.42;40.74
16120;BME280;12670;53.502;10.252;2023-06-19T11:48:54;100738.19;;;29.24;43.09
16120;BME280;12670;53.502;10.252;2023-06-19T11:52:09;100729.03;;;28.79;44.60
16120;BME280;12670;53.502;10.252;2023-06-19T11:55:13;100732.22;;;28.83;44.60
16120;BME280;12670;53.502;10.252;2023-06-19T11:58:15;100734.03;;;29.13;45.59
16120;BME280;12670;53.502;10.252;2023-06-19T12:01:18;100734.75;;;30.19;44.81
16120;BME280;12670;53.502;10.252;2023-06-19T12:04:21;100726.25;;;31.42;43.20
16120;BME280;12670;53.502;10.252;2023-06-19T12:07:25;100720.53;;;30.45;41.34
16120;BME280;12670;53.502;10.252;2023-06-19T12:10:28;100716.25;;;31.28;42.33
16120;BME280;12670;53.502;10.252;2023-06-19T12:13:31;100709.63;;;31.78;40.60
16120;BME280;12670;53.502;10.252;2023-06-19T12:16:34;100711.75;;;31.20;39.95
16120;BME280;12670;53.502;10.252;2023-06-19T12:19:36;100715.69;;;30.90;41.65
16120;BME280;12670;53.502;10.252;2023-06-19T12:22:41;100720.56;;;30.30;43.73
16120;BME280;12670;53.502;10.252;2023-06-19T12:25:43;100724.25;;;30.08;44.21
16120;BME280;12670;53.502;10.252;2023-06-19T12:28:46;100725.34;;;29.77;45.09
16120;BME280;12670;53.502;10.252;2023-06-19T12:31:51;100728.34;;;29.38;45.06
16120;BME280;12670;53.502;10.252;2023-06-19T12:34:53;100724.63;;;29.16;46.41
16120;BME280;12670;53.502;10.252;2023-06-19T12:37:57;100721.06;;;29.30;46.47
16120;BME280;12670;53.502;10.252;2023-06-19T12:41:00;100723.09;;;28.99;47.22
16120;BME280;12670;53.502;10.252;2023-06-19T12:44:03;100734.53;;;29.17;47.77
16120;BME280;12670;53.502;10.252;2023-06-19T12:47:07;100723.78;;;29.15;48.56
16120;BME280;12670;53.502;10.252;2023-06-19T12:50:09;100728.44;;;29.44;49.16
16120;BME280;12670;53.502;10.252;2023-06-19T12:53:14;100720.00;;;29.69;48.15
16120;BME280;12670;53.502;10.252;2023-06-19T12:56:17;100729.69;;;29.57;47.56
16120;BME280;12670;53.502;10.252;2023-06-19T12:59:20;100728.97;;;29.25;49.51
16120;BME280;12670;53.502;10.252;2023-06-19T13:02:23;100734.81;;;29.22;50.57
16120;BME280;12670;53.502;10.252;2023-06-19T13:05:26;100740.31;;;28.99;49.74
16120;BME280;12670;53.502;10.252;2023-06-19T13:08:30;100727.56;;;29.14;50.09
16120;BME280;12670;53.502;10.252;2023-06-19T13:11:32;100736.94;;;29.50;50.71
16120;BME280;12670;53.502;10.252;2023-06-19T13:14:36;100732.13;;;29.52;49.46
16120;BME280;12670;53.502;10.252;2023-06-19T13:17:39;100738.13;;;29.47;50.65
16120;BME280;12670;53.502;10.252;2023-06-19T13:20:42;100740.16;;;29.68;50.43
16120;BME280;12670;53.502;10.252;2023-06-19T13:23:47;100749.56;;;30.10;49.03
16120;BME280;12670;53.502;10.252;2023-06-19T13:26:50;100750.38;;;30.25;48.39
16120;BME280;12670;53.502;10.252;2023-06-19T13:29:53;100751.97;;;30.34;48.08
16120;BME280;12670;53.502;10.252;2023-06-19T13:32:56;100760.84;;;30.36;48.17
16120;BME280;12670;53.502;10.252;2023-06-19T13:35:59;100766.41;;;30.79;48.32
16120;BME280;12670;53.502;10.252;2023-06-19T13:39:03;100762.34;;;30.96;46.92
16120;BME280;12670;53.502;10.252;2023-06-19T13:42:06;100755.25;;;31.02;47.04
16120;BME280;12670;53.502;10.252;2023-06-19T13:45:10;100754.00;;;31.04;46.72
16120;BME280;12670;53.502;10.252;2023-06-19T13:48:12;100760.63;;;30.95;46.88
16120;BME280;12670;53.502;10.252;2023-06-19T13:51:15;100754.88;;;31.12;47.24
16120;BME280;12670;53.502;10.252;2023-06-19T13:54:20;100753.38;;;31.58;46.54
16120;BME280;12670;53.502;10.252;2023-06-19T13:57:23;100741.59;;;31.99;45.63
16120;BME280;12670;53.502;10.252;2023-06-19T14:00:26;100760.56;;;31.94;44.12
16120;BME280;12670;53.502;10.252;2023-06-19T14:03:28;100756.91;;;31.52;44.47
16120;BME280;12670;53.502;10.252;2023-06-19T14:06:31;100760.00;;;30.72;45.97
16120;BME280;12670;53.502;10.252;2023-06-19T14:09:35;100767.88;;;30.09;46.87
16120;BME280;12670;53.502;10.252;2023-06-19T14:12:38;100763.16;;;30.18;48.31
16120;BME280;12670;53.502;10.252;2023-06-19T14:15:41;100772.25;;;30.40;47.51
16120;BME280;12670;53.502;10.252;2023-06-19T14:18:43;100772.97;;;30.48;48.10
16120;BME280;12670;53.502;10.252;2023-06-19T14:21:46;100777.50;;;30.56;47.82
16120;BME280;12670;53.502;10.252;2023-06-19T14:24:50;100781.19;;;30.48;47.51
16120;BME280;12670;53.502;10.252;2023-06-19T14:27:55;100783.75;;;30.50;48.75
16120;BME280;12670;53.502;10.252;2023-06-19T14:30:58;100783.31;;;30.68;48.46
16120;BME280;12670;53.502;10.252;2023-06-19T14:34:01;100784.59;;;30.50;48.40
16120;BME280;12670;53.502;10.252;2023-06-19T14:37:04;100778.53;;;30.70;48.73
16120;BME280;12670;53.502;10.252;2023-06-19T14:40:09;100787.69;;;30.62;48.51
16120;BME280;12670;53.502;10.252;2023-06-19T14:43:12;100790.16;;;30.21;48.95
16120;BME280;12670;53.502;10.252;2023-06-19T14:46:14;100798.63;;;29.96;49.03
16120;BME280;12670;53.502;10.252;2023-06-19T14:49:37;100793.16;;;29.82;50.57
16120;BME280;12670;53.502;10.252;2023-06-19T14:52:40;100798.06;;;29.48;51.71
16120;BME280;12670;53.502;10.252;2023-06-19T14:55:44;100797.34;;;29.17;53.21
16120;BME280;12670;53.502;10.252;2023-06-19T14:58:48;100802.59;;;29.04;52.46
16120;BME280;12670;53.502;10.252;2023-06-19T15:01:51;100801.53;;;28.82;53.04
16120;BME280;12670;53.502;10.252;2023-06-19T15:04:53;100806.91;;;28.67;53.74
16120;BME280;12670;53.502;10.252;2023-06-19T15:08:06;100803.84;;;28.39;54.37
16120;BME280;12670;53.502;10.252;2023-06-19T15:11:12;100809.28;;;28.31;55.21
16120;BME280;12670;53.502;10.252;2023-06-19T15:14:15;100811.72;;;28.34;54.14
16120;BME280;12670;53.502;10.252;2023-06-19T15:17:18;100818.69;;;28.36;54.42
16120;BME280;12670;53.502;10.252;2023-06-19T15:20:21;100821.06;;;28.39;54.78
16120;BME280;12670;53.502;10.252;2023-06-19T15:23:24;100818.69;;;28.36;55.19
16120;BME280;12670;53.502;10.252;2023-06-19T15:26:28;100822.69;;;28.57;55.71
16120;BME280;12670;53.502;10.252;2023-06-19T15:29:31;100824.72;;;28.55;53.44
16120;BME280;12670;53.502;10.252;2023-06-19T15:32:34;100827.56;;;28.38;54.58
16120;BME280;12670;53.502;10.252;2023-06-19T15:35:36;100828.31;;;28.16;54.91
16120;BME280;12670;53.502;10.252;2023-06-19T15:38:39;100830.47;;;28.29;57.36
16120;BME280;12670;53.502;10.252;2023-06-19T15:41:44;100835.53;;;27.93;61.01
16120;BME280;12670;53.502;10.252;2023-06-19T15:44:47;100837.09;;;27.62;63.33
16120;BME280;12670;53.502;10.252;2023-06-19T15:47:50;100834.06;;;27.41;65.02
16120;BME280;12670;53.502;10.252;2023-06-19T15:50:53;100839.84;;;27.14;66.16